logo
App data

SLG Remix

SLG Remix is an alternate kinetic version of the brand new 16-bit horror visual novel/adventure Mega Drive game Sacred Line Genesis. A surreal, twisted kinetic novel tribute to obscure visual novel / adventure games of 90s.
Store | Hub | SteamDB | Site
Developer: 1812 Productions (PC Port) Publisher: 1812 Productions
Genre: Violent, Gore, Adventure, Casual, Indie
Languages: English
Tags: Adventure (23), Casual (22), Indie (21), Violent (20), Gore (20), Visual Novel (7), Horror (6)
Category: Single-player, Steam Trading Cards
Release date: Jun 1, 2016
Price: $2.99
Owners: 0 .. 20,000
Followers: 118
Playtime total: 01:37 (average) 01:37 (median)

Steam Spy is still in beta, so expect major bugs.

Owners data:

Access restricted.

This feature is only available to users with special access rights. Sorry.

If you want to proceed, you need to register or log in first and then back Steam Spy on Patreon. Look for Indie or Pro pledge.

Don't forget to use the same email as on Steam Spy!

Audience in 2 weeks:

Access restricted.

This feature is only available to users with special access rights. Sorry.

If you want to proceed, you need to register or log in first and then back Steam Spy on Patreon. Look for Indie or Pro pledge.

Don't forget to use the same email as on Steam Spy!

Peak daily concurrent players:

CCU data courtesy of SteamDB. Used with permission.

Hourly concurrent players:

Followers over time

Access restricted.

This feature is only available to users with special access rights. Sorry.

If you want to proceed, you need to register or log in first and then back Steam Spy on Patreon. Look for Indie or Pro pledge.

Don't forget to use the same email as on Steam Spy!

Views for top 50 videos on YouTube for this game:

Games similar to this one:

# Game Release date
Price
Score rank
(Userscore / Metascore)
Owners
Players
Playtime (Median)
1 Dark Fall 2: Lights Out Dec 3, 2013 $4.99N/A (N/A/66%)50,000 .. 100,0000%00:00 (00:00)
2 Nicolas Eymerich - The Inquisitor - Book 1 : The Plague Apr 30, 2014 $0.99N/A (N/A)50,000 .. 100,0000%00:00 (00:00)
3 The Journey Down: Chapter Two Aug 25, 2014 $19.99N/A (N/A/78%)50,000 .. 100,0000%00:00 (00:00)
4 The 39 Steps Apr 25, 2013 $4.99N/A (N/A)200,000 .. 500,0000%00:00 (00:00)
5 Captain Morgane and the Golden Turtle Jan 3, 2014 $4.99N/A (N/A)20,000 .. 50,0000%00:00 (00:00)
6 Jack Keane 2 - The Fire Within Jun 28, 2013 $9.99N/A (N/A)0 .. 20,0000%00:00 (00:00)
7 Moebius: Empire Rising Apr 15, 2014 $14.99N/A (N/A/54%)20,000 .. 50,0000%00:00 (00:00)
8 Face Noir Oct 17, 2013 $9.99N/A (N/A/59%)50,000 .. 100,0000%00:00 (00:00)
9 Lost Civilization Apr 15, 2014 $4.99N/A (N/A)20,000 .. 50,0000%00:00 (00:00)
10 Eleusis Oct 16, 2013 $14.99N/A (N/A)20,000 .. 50,0000%00:00 (00:00)
11 Infinite Space III: Sea of Stars Oct 29, 2015 $9.99N/A (N/A)20,000 .. 50,0000%00:00 (00:00)
12 The Inner World Sep 27, 2013 $14.99N/A (N/A/72%)100,000 .. 200,0000%00:00 (00:00)
13 Detective Grimoire Aug 18, 2014 $6.99N/A (N/A)50,000 .. 100,0000%00:00 (00:00)
14 Nightmares from the Deep: The Cursed Heart Feb 5, 2014 $9.99N/A (N/A)100,000 .. 200,0000%00:00 (00:00)
15 Return to Mysterious Island Mar 6, 2014 $1.59N/A (N/A)50,000 .. 100,0000%00:00 (00:00)
16 Haunted Aug 18, 2014 $14.99N/A (N/A/76%)20,000 .. 50,0000%00:00 (00:00)
17 Richard & Alice Jun 5, 2014 $5.99N/A (N/A/70%)50,000 .. 100,0000%00:00 (00:00)
18 The Uninvited: MacVenture Series Jan 26, 2015 $2.99N/A (N/A)20,000 .. 50,0000%00:00 (00:00)
19 Sinking Island Dec 5, 2014 $7.99N/A (N/A/68%)20,000 .. 50,0000%00:00 (00:00)
20 Block Legend DX Feb 24, 2015 $4.99N/A (N/A)20,000 .. 50,0000%00:00 (00:00)
21 Armikrog Sep 30, 2015 $9.99N/A (N/A/57%)100,000 .. 200,0000%00:00 (00:00)
22 Lex Mortis Feb 9, 2015 $4.99N/A (N/A)100,000 .. 200,0000%00:00 (00:00)
23 Shardlight Mar 8, 2016 $14.99N/A (N/A/75%)50,000 .. 100,0000%00:00 (00:00)
24 Odysseus: Long Way Home Feb 23, 2015 $3.99N/A (N/A)100,000 .. 200,0000%00:00 (00:00)
25 Morningstar: Descent to Deadrock Feb 17, 2015 $9.99N/A (N/A)50,000 .. 100,0000%00:00 (00:00)
26 Corrosion: Cold Winter Waiting [Enhanced Edition] Jul 1, 2015 $7.99N/A (N/A)50,000 .. 100,0000%00:00 (00:00)
27 Dead Synchronicity: Tomorrow Comes Today Apr 10, 2015 $0.99N/A (N/A/70%)100,000 .. 200,0000%00:00 (00:00)
28 Ankh - Anniversary Edition Nov 4, 2005 $7.99N/A (N/A)20,000 .. 50,0000%00:00 (00:00)
29 Teddy Floppy Ear - Kayaking Jan 16, 2015 $4.99N/A (N/A)100,000 .. 200,0000%00:00 (00:00)
30 The Music Machine May 6, 2015 $4.99N/A (N/A)20,000 .. 50,0000%00:00 (00:00)
31 The Great Fusion Feb 25, 2015 $2.99N/A (N/A)0 .. 20,0000%00:00 (00:00)
32 Disney•Pixar WALL-E Dec 11, 2008 $19.99N/A (N/A)20,000 .. 50,0000%00:00 (00:00)
33 Nevermind Sep 29, 2015 $19.99N/A (N/A)50,000 .. 100,0000%00:00 (00:00)
34 Supreme League of Patriots Jan 29, 2015 $5.99N/A (N/A/56%)20,000 .. 50,0000%00:00 (00:00)
35 Whispering Willows Jul 9, 2014 $9.99N/A (N/A)200,000 .. 500,0000%00:00 (00:00)
36 Pajama Sam 3: You Are What You Eat From Your Head To Your Feet Apr 1, 2000 $6.99N/A (N/A)0 .. 20,0000%00:00 (00:00)
37 White Haven Mysteries Apr 17, 2014 $4.99N/A (N/A)0 .. 20,0000%00:00 (00:00)
38 Reversion - The Meeting (2nd Chapter) Jul 8, 2014 $4.99N/A (N/A)100,000 .. 200,0000%00:00 (00:00)
39 Voodoo Whisperer Curse of a Legend Apr 8, 2014 $4.99N/A (N/A)0 .. 20,0000%00:00 (00:00)
40 A Boy and His Blob Jan 19, 2016 $9.99N/A (N/A)100,000 .. 200,0000%00:00 (00:00)
41 Haunted Past: Realm of Ghosts Apr 10, 2014 $4.99N/A (N/A)0 .. 20,0000%00:00 (00:00)
42 Sanitarium Oct 29, 2014 $9.99N/A (N/A)50,000 .. 100,0000%00:00 (00:00)
43 The Charnel House Trilogy Apr 16, 2015 $5.99N/A (N/A/68%)20,000 .. 50,0000%00:00 (00:00)
44 Clockwork Tales: Of Glass and Ink Apr 24, 2014 $9.99N/A (N/A)50,000 .. 100,0000%00:00 (00:00)
45 Mirror Mysteries Apr 10, 2014 $4.99N/A (N/A)20,000 .. 50,0000%00:00 (00:00)
46 Oknytt Apr 4, 2014 $4.99N/A (N/A/61%)50,000 .. 100,0000%00:00 (00:00)
47 Mirror Mysteries 2 Apr 10, 2014 $4.99N/A (N/A)0 .. 20,0000%00:00 (00:00)
48 Nearwood - Collector's Edition Apr 16, 2014 $9.99N/A (N/A)20,000 .. 50,0000%00:00 (00:00)
49 The Lost Crown Jun 6, 2014 $1.99N/A (N/A/71%)50,000 .. 100,0000%00:00 (00:00)
50 Nostradamus: The Last Prophecy Apr 24, 2014 $0.99N/A (N/A/70%)50,000 .. 100,0000%00:00 (00:00)
51 Spy Fox 3 "Operation Ozone" Mar 30, 2001 $6.99N/A (N/A)0 .. 20,0000%00:00 (00:00)
52 Black Sails - The Ghost Ship Sep 17, 2015 $9.99N/A (N/A)50,000 .. 100,0000%00:00 (00:00)
53 Mirrored - Chapter 1 Oct 30, 2015 $1.99N/A (N/A)20,000 .. 50,0000%00:00 (00:00)
54 ADventure Lib Aug 4, 2015 $1.99N/A (N/A)0 .. 20,0000%00:00 (00:00)
55 Seasons after Fall Sep 2, 2016 $9.99N/A (N/A/75%)200,000 .. 500,0000%00:00 (00:00)
56 Quantum Conscience Jun 9, 2015 $4.99N/A (N/A)20,000 .. 50,0000%00:00 (00:00)
57 The Travels of Marco Polo May 6, 2015 $6.99N/A (N/A)0 .. 20,0000%00:00 (00:00)
58 Idol Magical Girl Chiru Chiru Michiru Part 2 Jul 29, 2015 $19.99N/A (N/A)0 .. 20,0000%00:00 (00:00)
59 Narcosis Mar 28, 2017 $7.49N/A (N/A/72%)0 .. 20,0000%00:00 (00:00)
60 Void And Meddler Oct 28, 2015 $3.99N/A (N/A)0 .. 20,0000%00:00 (00:00)
61 Rememoried Aug 31, 2015 $9.99N/A (N/A)20,000 .. 50,0000%00:00 (00:00)
62 Blues and Bullets Jul 23, 2015 $4.99N/A (N/A/73%)50,000 .. 100,0000%00:00 (00:00)
63 AR-K: The Great Escape Jul 14, 2015 $7.99N/A (N/A/78%)20,000 .. 50,0000%00:00 (00:00)
64 MechaNika Jul 16, 2015 $3.99N/A (N/A)20,000 .. 50,0000%00:00 (00:00)
65 Last Heroes Nov 13, 2015 $2.99N/A (N/A)0 .. 20,0000%00:00 (00:00)
66 COAST GUARD Oct 21, 2015 $17.99N/A (N/A/47%)20,000 .. 50,0000%00:00 (00:00)
67 Knee Deep Jul 6, 2015 $19.99N/A (N/A)20,000 .. 50,0000%00:00 (00:00)
68 Blue Rose Aug 17, 2013 $15.99N/A (N/A)20,000 .. 50,0000%00:00 (00:00)
69 Lost Chronicles of Zerzura Jul 10, 2014 $9.99N/A (N/A)50,000 .. 100,0000%00:00 (00:00)
70 Gunspell - Steam Edition Nov 7, 2014 $14.99N/A (N/A)100,000 .. 200,0000%00:00 (00:00)
71 Shiftlings Mar 3, 2015 $14.99N/A (N/A/70%)50,000 .. 100,0000%00:00 (00:00)
72 Al Emmo and the Lost Dutchman's Mine May 9, 2014 $9.99N/A (N/A/77%)0 .. 20,0000%00:00 (00:00)
73 The Maker's Eden Jul 30, 2014 $8.99N/A (N/A)20,000 .. 50,0000%00:00 (00:00)
74 Detective Case and Clown Bot in: Murder in the Hotel Lisbon Jul 17, 2014 $5.99N/A (N/A)20,000 .. 50,0000%00:00 (00:00)
75 A Vampyre Story Jul 15, 2014 $19.99N/A (N/A/75%)0 .. 20,0000%00:00 (00:00)
76 Millionaire Manor May 15, 2014 $4.99N/A (N/A)20,000 .. 50,0000%00:00 (00:00)
77 Randal's Monday Nov 12, 2014 $19.99N/A (N/A/57%)100,000 .. 200,0000%00:00 (00:00)
78 Tex Murphy: Under a Killing Moon Jun 12, 2014 $9.99N/A (N/A)20,000 .. 50,0000%00:00 (00:00)
79 Subject 13 May 28, 2015 $1.99N/A (N/A/59%)50,000 .. 100,0000%00:00 (00:00)
80 Heileen 3: New Horizons Jul 17, 2014 $24.99N/A (N/A)0 .. 20,0000%00:00 (00:00)
81 Verde Station Dec 18, 2014 FreeN/A (N/A)20,000 .. 50,0000%00:00 (00:00)
82 Pitiri 1977 Nov 7, 2014 $3.99N/A (N/A)20,000 .. 50,0000%00:00 (00:00)
83 eXperience 112 Oct 24, 2014 $1.99N/A (N/A)20,000 .. 50,0000%00:00 (00:00)
84 A Golden Wake Oct 9, 2014 $9.99N/A (N/A/68%)20,000 .. 50,0000%00:00 (00:00)
85 Fire Apr 9, 2015 $9.99N/A (N/A/64%)20,000 .. 50,0000%00:00 (00:00)
86 Draw a Stickman: EPIC 2 Nov 6, 2015 $6.99N/A (N/A)20,000 .. 50,0000%00:00 (00:00)
87 Ferrum's Secrets: Where Is Grandpa? Aug 14, 2015 $4.99N/A (N/A)20,000 .. 50,0000%00:00 (00:00)
88 The Uncertain: Last Quiet Day Sep 22, 2016 $14.99N/A (N/A)50,000 .. 100,0000%00:00 (00:00)
89 A Sirius Game Aug 21, 2015 $0.49N/A (N/A)0 .. 20,0000%00:00 (00:00)
90 Sorcery! Parts 1 and 2 Feb 2, 2016 $3.24N/A (N/A/69%)50,000 .. 100,0000%00:00 (00:00)
91 The Last Dream: Developer's Edition Dec 3, 2015 $9.99N/A (N/A)20,000 .. 50,0000%00:00 (00:00)
92 Vampire Legends: The True Story of Kisilova Dec 3, 2015 $9.99N/A (N/A)50,000 .. 100,0000%00:00 (00:00)
93 Adam's Venture: Origins Apr 1, 2016 $17.99N/A (N/A)20,000 .. 50,0000%00:00 (00:00)
94 Highrise Heroes: Word Challenge Jan 8, 2016 $4.99N/A (N/A)0 .. 20,0000%00:00 (00:00)
95 Wuppo: Definitive Edition Sep 29, 2016 $14.99N/A (N/A/78%)200,000 .. 500,0000%00:00 (00:00)
96 HotLead Nov 6, 2015 $0.99N/A (N/A)50,000 .. 100,0000%00:00 (00:00)
97 Californium Feb 17, 2016 $6.99N/A (N/A/64%)20,000 .. 50,0000%00:00 (00:00)
98 Door To Door Aug 2, 2016 $4.99N/A (N/A)20,000 .. 50,0000%00:00 (00:00)
99 Airport Madness: Time Machine Sep 18, 2015 $6.99N/A (N/A)0 .. 20,0000%00:00 (00:00)
100 The Land Of Lamia Nov 23, 2015 $0.99N/A (N/A)20,000 .. 50,0000%00:00 (00:00)
101 The Last Door: Season 2 - Collector's Edition Mar 29, 2016 $9.99N/A (N/A/85%)50,000 .. 100,0000%00:00 (00:00)
102 Bulb Boy Oct 29, 2015 $8.99N/A (N/A/84%)100,000 .. 200,0000%00:00 (00:00)
103 Bizarre Earthquake May 11, 2016 $0.49N/A (N/A)100,000 .. 200,0000%00:00 (00:00)
104 The Night of the Rabbit May 28, 2013 $1.99N/A (N/A/75%)200,000 .. 500,0000%00:00 (00:00)
105 Cursed Jun 17, 2016 $4.99N/A (N/A)20,000 .. 50,0000%00:00 (00:00)
106 Hector: Badge of Carnage - Full Series Apr 27, 2011 $14.99N/A (N/A/75%)200,000 .. 500,0000%00:00 (00:00)
107 The Deed: Dynasty May 10, 2016 $2.99N/A (N/A)50,000 .. 100,0000%00:00 (00:00)
108 Dyscourse Mar 25, 2015 $14.99N/A (N/A/71%)50,000 .. 100,0000%00:00 (00:00)
109 Space Pilgrim Episode II: Epsilon Indi Jan 9, 2016 $1.99N/A (N/A)100,000 .. 200,0000%00:00 (00:00)
110 Stacking Mar 6, 2012 $9.99N/A (N/A/80%)200,000 .. 500,0000%00:00 (00:00)
111 A Princess' Tale May 20, 2016 $4.99N/A (N/A)0 .. 20,0000%00:00 (00:00)
112 The Dig Jul 8, 2009 $5.99N/A (N/A)100,000 .. 200,0000%00:00 (00:00)
113 Space Pilgrim Episode III: Delta Pavonis Feb 4, 2016 $1.99N/A (N/A)0 .. 20,0000%00:00 (00:00)
114 Yesterday Mar 22, 2012 $9.99N/A (N/A/65%)100,000 .. 200,0000%00:00 (00:00)
115 Bottle Apr 21, 2016 $0.99N/A (N/A)20,000 .. 50,0000%00:00 (00:00)
116 Sam & Max 201: Ice Station Santa May 16, 2008 N/AN/A (N/A/82%)20,000 .. 50,0000%00:00 (00:00)
117 Red Comrades 2: For the Great Justice. Reloaded Oct 14, 2016 $4.99N/A (N/A)20,000 .. 50,0000%00:00 (00:00)
118 Sherlock Holmes and The Hound of The Baskervilles Apr 23, 2012 $9.99N/A (N/A)20,000 .. 50,0000%00:00 (00:00)
119 Beyond Magic Feb 20, 2017 $2.99N/A (N/A)0 .. 20,0000%00:00 (00:00)
120 Back to the Future: The Game Dec 23, 2010 N/AN/A (N/A/74%)500,000 .. 1,000,0000%00:00 (00:00)
121 Inexistence Apr 18, 2016 $2.99N/A (N/A)100,000 .. 200,0000%00:00 (00:00)
122 Resonance Jul 25, 2012 $9.99N/A (N/A/76%)50,000 .. 100,0000%00:00 (00:00)
123 Finding Hope Jan 30, 2017 $2.99N/A (N/A)0 .. 20,0000%00:00 (00:00)
124 Lost Horizon Sep 24, 2010 $9.99N/A (N/A/77%)50,000 .. 100,0000%00:00 (00:00)
125 Magi Trials Nov 17, 2016 $11.99N/A (N/A)0 .. 20,0000%00:00 (00:00)
126 The Journey Down: Chapter One Jan 9, 2013 $8.99N/A (N/A/72%)200,000 .. 500,0000%00:00 (00:00)
127 Adam Wolfe Oct 7, 2016 $5.99N/A (N/A)50,000 .. 100,0000%00:00 (00:00)
128 Dark Fall: Lost Souls Apr 21, 2010 $2.59N/A (N/A/75%)50,000 .. 100,0000%00:00 (00:00)
129 Space Pilgrim Episode IV: Sol Mar 4, 2016 $1.99N/A (N/A)100,000 .. 200,0000%00:00 (00:00)
130 The Book of Unwritten Tales: The Critter Chronicles Dec 5, 2012 $19.99N/A (N/A/73%)100,000 .. 200,0000%00:00 (00:00)
131 The Away Team: Lost Exodus Jul 22, 2016 $8N/A (N/A)0 .. 20,0000%00:00 (00:00)
132 The Blackwell Legacy Jan 13, 2012 $4.99N/A (N/A/80%)100,000 .. 200,0000%00:00 (00:00)
133 LostWinds 2: Winter of the Melodias Mar 24, 2016 $9.99N/A (N/A)20,000 .. 50,0000%00:00 (00:00)
134 Hamlet or the Last Game without MMORPG Features, Shaders ... Oct 22, 2012 $4.99N/A (N/A)200,000 .. 500,0000%00:00 (00:00)
135 Space Pilgrim Episode I: Alpha Centauri Dec 21, 2015 FreeN/A (N/A)1,000,000 .. 2,000,0000%00:00 (00:00)
136 Blackwell Unbound Jan 13, 2012 $4.99N/A (N/A)100,000 .. 200,0000%00:00 (00:00)
137 Project Abyss Nov 18, 2016 $4.99N/A (N/A)0 .. 20,0000%00:00 (00:00)
138 The Secret Monster Society Jul 28, 2016 $3.99N/A (N/A)0 .. 20,0000%00:00 (00:00)
139 Stories Untold Feb 27, 2017 $9.99N/A (N/A/81%)200,000 .. 500,0000%00:00 (00:00)
140 Eventide 2: The Sorcerers Mirror Oct 13, 2016 $9.99N/A (N/A)20,000 .. 50,0000%00:00 (00:00)
141 Dreadhalls Mar 9, 2017 $9.99N/A (N/A)0 .. 20,0000%00:00 (00:00)
142 Existentia Aug 8, 2016 $0.99N/A (N/A)200,000 .. 500,0000%00:00 (00:00)
143 Gochi-Show! -How To Learn Japanese Cooking Game- Sep 1, 2016 $4.99N/A (N/A)0 .. 20,0000%00:00 (00:00)
144 The Frostrune Feb 2, 2017 $9.99N/A (N/A)50,000 .. 100,0000%00:00 (00:00)
145 Endless Room Sep 30, 2016 $1.99N/A (N/A)100,000 .. 200,0000%00:00 (00:00)
146 Greenwood the Last Ritual Jan 19, 2017 $2.99N/A (N/A)100,000 .. 200,0000%00:00 (00:00)
147 Edge of Twilight – Return To Glory Sep 28, 2016 $14.99N/A (N/A)0 .. 20,0000%00:00 (00:00)
148 Bad Dream: Coma Mar 9, 2017 $8.99N/A (N/A)50,000 .. 100,0000%00:00 (00:00)
149 神明的一天世界(God's One Day World) Jul 1, 2016 $9.99N/A (N/A)0 .. 20,0000%00:00 (00:00)

Tags over time:

Access restricted.

This feature is only available to users with special access rights. Sorry.

If you want to proceed, you need to register or log in first and then back Steam Spy on Patreon. Look for Indie or Pro pledge.

Don't forget to use the same email as on Steam Spy!

Owners of this game also own:

Access restricted.

This feature is only available to users with special access rights. Sorry.

If you want to proceed, you need to register or log in first and then back Steam Spy on Patreon. Look for Indie or Pro pledge.

Don't forget to use the same email as on Steam Spy!

Playtime distribution:

Access restricted.

This feature is only available to users with special access rights. Sorry.

If you want to proceed, you need to register or log in first and then back Steam Spy on Patreon. Look for Indie or Pro pledge.

Don't forget to use the same email as on Steam Spy!

Playtime (2 weeks):

Access restricted.

This feature is only available to users with special access rights. Sorry.

If you want to proceed, you need to register or log in first and then back Steam Spy on Patreon. Look for Indie or Pro pledge.

Don't forget to use the same email as on Steam Spy!

User reviews:

Login required.

Please register or log in to see this information.